WMKJ/JHB METAR and TAF weather

Enter ICAO airport designator
Station Type Date Time Source
WMKJ METAR 2022/07/01 01:00 UTC NOAA

WMKJ 010100Z VRB02KT 9999 FEW018 27/25 Q1008


Station Type Date Time Source
WMKJ Decoded METAR 2022/07/01 01:00 UTC NOAA

Johore Bharu / Senai, Malaysia (WMKJ) 01-38N 103-40E 40M
Jun 30, 2022 - 09:00 PM EDT / 2022.07.01 0100 UTC
Wind: Variable at 2 MPH (2 KT):0
Visibility: greater than 7 mile(s):0
Sky conditions: mostly clear
Temperature: 80 F (27 C)
Dew Point: 77 F (25 C)
Relative Humidity: 88%
Pressure (altimeter): 29.77 in. Hg (1008 hPa)
ob: WMKJ 010100Z VRB02KT 9999 FEW018 27/25 Q1008
cycle: 1

Station Type Date Time Source
WMKJ TAF 2022/06/30 18:09 UTC NOAA

TAF TAF WMKJ 301700Z 3018/0118 19005KT 9999 FEW022

Example: see airport list